Terminal Aerodrome Forecast
Issued by NWS Binghamton, NY

Home | Current Version | Previous Version | Text Only | Print | Product List | Glossary On
Versions: 1 2 3 4 5 6 7 8 9 10 11 12 13 14 15
711
FTUS41 KBGM 250522
TAFSYR
TAF
KSYR 250522Z 2506/2606 VRB03KT P6SM BKN120
     FM251700 25007KT P6SM SCT040 BKN080
      TEMPO 2517/2521 3SM TSRA BR OVC040CB
     FM252100 27008KT P6SM BKN250=

USA.gov is the U.S. government's official web portal to all federal, state and local government web resources and services.